Time;durP1;ratioP1;P1;durP2;ratioP2;P2;SDS_P1;SDS_P2;PMS_P1;PMS_P2;Temp;Humidity;BMP_temperature;BMP_pressure;BME280_temperature;BME280_humidity;BME280_pressure;Samples;Min_cycle;Max_cycle;Signal;HPM_P1;HPM_P2
2023/01/22 00:01:36;;;;;;;22.00;14.40;;;-0.30;99.90;;;;;;5008860;28;20071;-77
2023/01/22 00:04:02;;;;;;;23.15;14.68;;;-0.30;99.90;;;;;;5011479;28;20061;-77
2023/01/22 00:06:27;;;;;;;23.35;14.82;;;-0.40;99.90;;;;;;5011239;28;20124;-77
2023/01/22 00:08:53;;;;;;;24.05;14.63;;;-0.40;99.90;;;;;;5012946;28;20038;-77
2023/01/22 00:11:19;;;;;;;24.30;15.48;;;-0.50;99.90;;;;;;5008480;28;20199;-77
2023/01/22 00:13:45;;;;;;;22.73;15.48;;;-0.50;99.90;;;;;;5012418;28;20053;-77
2023/01/22 00:16:16;;;;;;;24.65;16.90;;;-0.50;99.90;;;;;;4994158;28;20037;-78
2023/01/22 00:18:42;;;;;;;23.65;15.25;;;-0.60;99.90;;;;;;5007805;28;20046;-77
2023/01/22 00:21:08;;;;;;;25.15;16.13;;;-0.60;99.90;;;;;;5011236;28;20070;-77
2023/01/22 00:23:34;;;;;;;27.98;15.98;;;-0.60;99.90;;;;;;4995134;28;20037;-77
2023/01/22 00:26:01;;;;;;;22.83;15.00;;;-0.60;99.90;;;;;;4977394;28;20073;-76
2023/01/22 00:28:27;;;;;;;26.67;17.55;;;-0.80;99.90;;;;;;5008150;28;20054;-76
2023/01/22 00:31:00;;;;;;;21.75;13.80;;;-0.60;99.90;;;;;;4990516;28;20054;-77
2023/01/22 00:33:26;;;;;;;22.27;15.75;;;-0.60;99.90;;;;;;4981034;28;20124;-76
2023/01/22 00:35:52;;;;;;;25.73;15.95;;;-0.60;99.90;;;;;;4992700;28;20120;-76
2023/01/22 00:38:17;;;;;;;18.30;11.88;;;-0.60;99.90;;;;;;5013077;28;20037;-77
2023/01/22 00:40:43;;;;;;;24.67;14.45;;;-0.50;99.90;;;;;;5012879;28;20448;-77
2023/01/22 00:43:09;;;;;;;21.00;13.00;;;-0.50;99.90;;;;;;5005973;28;20045;-76
2023/01/22 00:45:34;;;;;;;25.55;16.60;;;-0.60;99.90;;;;;;4991447;28;20042;-77
2023/01/22 00:48:00;;;;;;;24.35;14.10;;;-0.60;99.90;;;;;;5008522;28;20045;-77
2023/01/22 00:50:26;;;;;;;29.08;17.13;;;-0.60;99.90;;;;;;4993906;28;20518;-77
2023/01/22 00:52:51;;;;;;;23.77;15.07;;;-0.60;99.90;;;;;;4992393;28;20049;-77
2023/01/22 00:55:17;;;;;;;22.88;14.30;;;-0.60;99.90;;;;;;4995180;28;20423;-77
2023/01/22 00:57:43;;;;;;;27.40;15.45;;;-0.60;99.90;;;;;;5009107;28;20046;-77
2023/01/22 01:00:09;;;;;;;21.02;13.88;;;-0.60;99.90;;;;;;5010134;28;20135;-77
2023/01/22 01:03:25;;;;;;;25.15;15.55;;;-0.60;99.90;;;;;;4970309;28;20045;-77
2023/01/22 01:05:20;;;;;;;24.73;14.65;;;-0.70;99.90;;;;;;5010790;28;20056;-77
2023/01/22 01:07:46;;;;;;;26.17;14.82;;;;;;;;;;5009374;28;20041;-77
2023/01/22 01:10:12;;;;;;;27.55;15.88;;;-0.70;99.90;;;;;;5004986;28;20128;-76
2023/01/22 01:12:37;;;;;;;25.63;16.45;;;-0.70;99.90;;;;;;5010232;28;20033;-75
2023/01/22 01:15:03;;;;;;;31.45;19.05;;;-0.70;99.90;;;;;;5011735;28;20096;-72
2023/01/22 01:17:29;;;;;;;31.83;19.90;;;-0.80;99.90;;;;;;5009765;28;20069;-73
2023/01/22 01:19:55;;;;;;;27.42;18.08;;;-0.80;99.90;;;;;;5002473;28;20500;-75
2023/01/22 01:22:20;;;;;;;31.73;18.00;;;-0.80;99.90;;;;;;4989246;28;20050;-76
2023/01/22 01:24:46;;;;;;;25.00;16.95;;;-0.70;99.90;;;;;;5006692;28;20045;-76
2023/01/22 01:27:11;;;;;;;26.23;14.80;;;-0.70;99.90;;;;;;5002561;28;20042;-76
2023/01/22 01:29:37;;;;;;;20.83;14.15;;;-0.60;99.90;;;;;;4985568;28;20492;-77
2023/01/22 01:32:03;;;;;;;28.25;18.75;;;-0.60;99.90;;;;;;5003815;28;20042;-78
2023/01/22 01:34:28;;;;;;;28.35;15.82;;;-0.60;99.90;;;;;;5005905;28;20052;-80
2023/01/22 01:36:54;;;;;;;23.63;13.80;;;-0.60;99.90;;;;;;5005806;28;20061;-79
2023/01/22 01:39:19;;;;;;;27.48;16.35;;;-0.60;99.90;;;;;;4991080;28;20129;-79
2023/01/22 01:41:45;;;;;;;26.58;17.08;;;-0.60;99.90;;;;;;4998550;28;20030;-79
2023/01/22 01:44:20;;;;;;;27.92;18.42;;;-0.70;99.90;;;;;;4977929;28;20092;-79
2023/01/22 01:47:15;;;;;;;30.58;18.75;;;-0.70;99.90;;;;;;4980310;28;20065;-79
2023/01/22 01:49:46;;;;;;;25.75;14.73;;;-0.80;99.90;;;;;;4995124;28;20042;-79
2023/01/22 01:52:13;;;;;;;29.02;17.38;;;-0.80;99.90;;;;;;4995079;28;20540;-79
2023/01/22 01:54:43;;;;;;;23.10;14.73;;;-0.80;99.90;;;;;;5012714;28;20042;-79
2023/01/22 01:57:15;;;;;;;28.77;17.65;;;-0.80;99.90;;;;;;5008155;28;20042;-79
2023/01/22 01:59:42;;;;;;;26.70;17.73;;;-0.80;99.90;;;;;;5003046;28;20117;-79
2023/01/22 02:02:07;;;;;;;22.92;14.88;;;-0.80;99.90;;;;;;5003041;28;20042;-79
2023/01/22 02:04:33;;;;;;;26.50;16.13;;;-0.70;99.90;;;;;;4986689;28;20626;-79
2023/01/22 02:06:59;;;;;;;27.13;16.73;;;-0.70;99.90;;;;;;5007103;28;20102;-80
2023/01/22 02:09:25;;;;;;;28.17;17.65;;;-0.70;99.90;;;;;;5018593;28;20460;-80
2023/01/22 02:11:52;;;;;;;29.98;18.05;;;-0.70;99.90;;;;;;5014662;28;20416;-80
2023/01/22 02:14:23;;;;;;;29.25;18.50;;;-0.70;99.90;;;;;;4999062;28;20075;-80
2023/01/22 02:17:10;;;;;;;26.60;16.13;;;-0.70;99.90;;;;;;4997689;28;20085;-80
2023/01/22 02:19:37;;;;;;;23.85;13.18;;;-0.70;99.90;;;;;;4991747;28;20508;-80
2023/01/22 02:22:09;;;;;;;26.83;16.75;;;-0.60;99.90;;;;;;4991690;28;20405;-81
2023/01/22 02:24:35;;;;;;;25.25;15.15;;;-0.60;99.90;;;;;;5010829;28;20045;-80
2023/01/22 02:27:01;;;;;;;25.27;14.77;;;-0.50;99.90;;;;;;5014274;28;20493;-80
2023/01/22 02:29:27;;;;;;;26.98;16.90;;;-0.50;99.90;;;;;;5018956;28;20053;-81
2023/01/22 02:31:53;;;;;;;23.27;14.57;;;-0.50;99.90;;;;;;5003732;28;20049;-80
2023/01/22 02:34:23;;;;;;;21.77;15.13;;;-0.40;99.90;;;;;;4998942;28;20353;-81
2023/01/22 02:36:49;;;;;;;24.63;16.23;;;-0.40;99.90;;;;;;5021585;28;20053;-81
2023/01/22 02:39:14;;;;;;;24.15;17.25;;;-0.40;99.90;;;;;;5022502;28;20046;-80
2023/01/22 02:41:40;;;;;;;18.67;12.90;;;-0.30;99.90;;;;;;5021979;28;20061;-81
2023/01/22 02:44:06;;;;;;;21.30;12.00;;;-0.30;99.90;;;;;;5020569;28;20547;-80
2023/01/22 02:46:32;;;;;;;17.40;11.93;;;-0.20;99.90;;;;;;5024606;28;20049;-80
2023/01/22 02:48:58;;;;;;;20.58;15.48;;;-0.20;99.90;;;;;;5022716;28;20045;-81
2023/01/22 02:51:25;;;;;;;22.27;14.45;;;-0.20;99.90;;;;;;5002479;28;20373;-82
2023/01/22 02:53:51;;;;;;;20.40;15.20;;;-0.20;99.90;;;;;;5022280;28;20065;-83
2023/01/22 02:56:18;;;;;;;24.67;15.73;;;-0.20;99.90;;;;;;5020209;28;20044;-82
2023/01/22 02:58:44;;;;;;;17.30;12.27;;;-0.20;99.90;;;;;;5009759;28;20089;-82
2023/01/22 03:01:21;;;;;;;18.88;13.07;;;-0.10;99.90;;;;;;5025439;28;20034;-82
2023/01/22 03:03:53;;;;;;;15.83;11.07;;;-0.10;99.90;;;;;;5007199;28;20053;-81
2023/01/22 03:06:21;;;;;;;16.35;10.00;;;-0.10;99.90;;;;;;5007643;28;20179;-82
2023/01/22 03:08:53;;;;;;;14.05;10.05;;;0.00;99.90;;;;;;5013789;28;20056;-81
2023/01/22 03:11:19;;;;;;;11.02;9.85;;;0.10;99.90;;;;;;4991046;28;20041;-81
2023/01/22 03:22:03;;;;;;;9.93;7.30;;;0.30;99.90;;;;;;4993010;28;20368;-81
2023/01/22 03:24:28;;;;;;;10.15;7.22;;;0.30;99.90;;;;;;4991684;28;20088;-81
2023/01/22 03:26:54;;;;;;;13.00;8.75;;;0.30;99.90;;;;;;5010751;28;20048;-81
2023/01/22 03:29:20;;;;;;;11.75;9.18;;;0.40;99.90;;;;;;4979877;28;20088;-81
2023/01/22 03:31:47;;;;;;;10.07;8.52;;;0.30;99.90;;;;;;5012148;28;20155;-81
2023/01/22 03:34:17;;;;;;;12.75;7.85;;;0.30;99.90;;;;;;5014967;28;20128;-81
2023/01/22 03:36:43;;;;;;;10.02;8.07;;;0.40;99.90;;;;;;5009825;28;20042;-81
2023/01/22 03:39:09;;;;;;;11.48;9.20;;;0.40;99.90;;;;;;5012705;28;20125;-81
2023/01/22 03:41:35;;;;;;;9.65;7.70;;;0.40;99.90;;;;;;5014057;28;20180;-81
2023/01/22 03:44:02;;;;;;;13.68;7.85;;;0.40;99.90;;;;;;5009262;28;20034;-81
2023/01/22 03:46:28;;;;;;;11.55;6.75;;;0.40;99.90;;;;;;5015596;28;20060;-81
2023/01/22 03:48:54;;;;;;;7.57;6.50;;;0.40;99.90;;;;;;5013392;28;20049;-81
2023/01/22 03:51:20;;;;;;;10.88;8.48;;;0.10;99.90;;;;;;5009905;28;20046;-81
2023/01/22 03:53:46;;;;;;;11.00;7.70;;;0.40;99.90;;;;;;4999857;28;20539;-82
2023/01/22 03:56:19;;;;;;;10.23;7.38;;;0.50;99.90;;;;;;5017250;28;20046;-81
2023/01/22 03:58:44;;;;;;;10.57;8.10;;;0.50;99.90;;;;;;5021742;28;20120;-80
2023/01/22 04:01:16;;;;;;;6.38;5.00;;;0.50;99.90;;;;;;5029913;28;20045;-81
2023/01/22 04:03:42;;;;;;;8.18;6.18;;;0.50;99.90;;;;;;5032902;28;20042;-81
2023/01/22 04:06:09;;;;;;;8.18;6.22;;;0.80;99.90;;;;;;5030860;28;20049;-81
2023/01/22 04:08:36;;;;;;;5.80;5.20;;;0.50;99.90;;;;;;5004573;28;20081;-81
2023/01/22 04:11:02;;;;;;;11.32;8.07;;;0.50;99.90;;;;;;4995907;28;20105;-81
2023/01/22 04:13:30;;;;;;;10.25;7.60;;;0.50;99.90;;;;;;5020382;28;20472;-81
2023/01/22 04:15:55;;;;;;;10.70;7.95;;;0.50;99.90;;;;;;4998934;28;20057;-81
2023/01/22 04:18:21;;;;;;;7.82;6.63;;;0.50;99.90;;;;;;5019927;28;20037;-81
2023/01/22 04:20:48;;;;;;;9.27;6.07;;;0.50;99.90;;;;;;5007900;28;20046;-81
2023/01/22 04:23:14;;;;;;;7.72;6.68;;;0.50;99.90;;;;;;5009197;28;20046;-81
2023/01/22 04:25:39;;;;;;;10.70;8.15;;;0.50;99.90;;;;;;4976891;28;20042;-81
2023/01/22 04:28:06;;;;;;;9.50;7.18;;;0.60;99.90;;;;;;4981586;28;20132;-81
2023/01/22 04:30:32;;;;;;;9.77;7.05;;;0.50;99.90;;;;;;4979835;28;20081;-81
2023/01/22 04:32:57;;;;;;;5.32;4.45;;;0.50;99.90;;;;;;5015005;28;20050;-81
2023/01/22 04:35:23;;;;;;;5.55;4.80;;;0.50;99.90;;;;;;5016844;28;20080;-81
2023/01/22 04:37:49;;;;;;;9.48;7.25;;;0.50;99.90;;;;;;5015913;28;20117;-81
2023/01/22 04:40:14;;;;;;;8.77;6.88;;;0.50;99.90;;;;;;5017901;28;20053;-80
2023/01/22 04:42:40;;;;;;;10.30;6.30;;;0.50;99.90;;;;;;4990133;28;20049;-81
2023/01/22 04:45:07;;;;;;;7.65;6.72;;;0.50;99.90;;;;;;4984110;28;20050;-80
2023/01/22 04:47:32;;;;;;;11.27;8.45;;;0.50;99.90;;;;;;4992199;28;20042;-81
2023/01/22 04:49:58;;;;;;;9.13;8.05;;;0.50;99.90;;;;;;4992170;28;20469;-81
2023/01/22 04:52:23;;;;;;;6.60;5.88;;;0.50;99.90;;;;;;5003239;28;20061;-81
2023/01/22 04:54:50;;;;;;;9.15;8.23;;;0.50;99.90;;;;;;5018594;28;20046;-81
2023/01/22 04:57:16;;;;;;;9.48;7.47;;;0.50;99.90;;;;;;5006152;28;20094;-79
2023/01/22 04:59:42;;;;;;;7.88;6.53;;;0.50;99.90;;;;;;5012790;28;20046;-79
2023/01/22 05:02:07;;;;;;;8.10;7.30;;;0.50;99.90;;;;;;5009751;28;20042;-79
2023/01/22 05:04:33;;;;;;;9.10;8.15;;;0.50;99.90;;;;;;5012595;28;20049;-79
2023/01/22 05:06:59;;;;;;;9.50;6.63;;;0.50;99.90;;;;;;5008100;28;20055;-79
2023/01/22 05:09:25;;;;;;;7.80;7.10;;;0.50;99.90;;;;;;5015126;28;20050;-79
2023/01/22 05:11:50;;;;;;;10.43;8.43;;;0.50;99.90;;;;;;4976238;28;20052;-79
2023/01/22 05:14:16;;;;;;;7.60;5.78;;;0.50;99.90;;;;;;5007323;28;20049;-79
2023/01/22 05:16:42;;;;;;;7.53;6.90;;;0.50;99.90;;;;;;5010659;28;20065;-79
2023/01/22 05:19:07;;;;;;;8.23;7.43;;;0.50;99.90;;;;;;4989602;28;20049;-79
2023/01/22 05:21:33;;;;;;;6.70;6.10;;;0.50;99.90;;;;;;5008738;28;20536;-79
2023/01/22 05:23:59;;;;;;;9.63;8.73;;;0.50;99.90;;;;;;5005708;28;20489;-79
2023/01/22 05:26:24;;;;;;;8.70;7.93;;;0.50;99.90;;;;;;5009816;28;20066;-79
2023/01/22 05:28:50;;;;;;;5.53;4.95;;;0.50;99.90;;;;;;5007177;28;20066;-79
2023/01/22 05:31:16;;;;;;;9.88;7.78;;;0.50;99.90;;;;;;5008588;28;20038;-79
2023/01/22 05:33:43;;;;;;;8.93;8.07;;;0.50;99.90;;;;;;5007169;28;20048;-79
2023/01/22 05:36:11;;;;;;;7.38;6.65;;;0.50;99.90;;;;;;5004127;28;20659;-78
2023/01/22 05:38:37;;;;;;;8.52;7.72;;;0.40;99.90;;;;;;5003981;28;20038;-79
2023/01/22 05:41:03;;;;;;;8.77;7.97;;;0.50;99.90;;;;;;4997869;28;20042;-78
2023/01/22 05:43:28;;;;;;;7.88;7.05;;;0.40;99.90;;;;;;5004611;28;20038;-79
2023/01/22 05:45:59;;;;;;;7.90;6.65;;;0.40;99.90;;;;;;4988332;28;20450;-79
2023/01/22 05:48:25;;;;;;;9.82;6.70;;;0.40;99.90;;;;;;5004698;28;20473;-79
2023/01/22 05:50:50;;;;;;;7.43;6.63;;;0.40;99.90;;;;;;4991146;28;20044;-80
2023/01/22 05:53:16;;;;;;;10.15;7.80;;;0.40;99.90;;;;;;5014666;28;20034;-80
2023/01/22 05:55:42;;;;;;;6.50;5.43;;;0.40;99.90;;;;;;4995207;28;20362;-79
2023/01/22 05:58:07;;;;;;;7.53;6.13;;;0.40;99.90;;;;;;5008537;28;20042;-78
2023/01/22 06:00:33;;;;;;;8.85;6.75;;;0.40;99.90;;;;;;4985828;28;20057;-81
2023/01/22 06:03:00;;;;;;;7.47;6.05;;;0.40;99.90;;;;;;5020302;28;20072;-81
2023/01/22 06:05:26;;;;;;;6.75;6.05;;;0.30;99.90;;;;;;4991692;28;20045;-77
2023/01/22 06:07:52;;;;;;;7.88;6.93;;;0.30;99.90;;;;;;5005944;28;20054;-78
2023/01/22 06:10:18;;;;;;;7.45;6.75;;;0.30;99.90;;;;;;5006966;28;20107;-78
2023/01/22 06:12:44;;;;;;;7.68;5.95;;;0.30;99.90;;;;;;5004127;28;20052;-78
2023/01/22 06:15:10;;;;;;;8.50;7.70;;;0.30;99.90;;;;;;5007634;28;20561;-78
2023/01/22 06:17:36;;;;;;;8.43;7.60;;;0.30;99.90;;;;;;5006529;28;20038;-78
2023/01/22 06:20:03;;;;;;;7.45;6.70;;;0.30;99.90;;;;;;4989912;28;20046;-78
2023/01/22 06:22:29;;;;;;;8.83;8.00;;;0.30;99.90;;;;;;4991304;28;20144;-78
2023/01/22 06:24:55;;;;;;;8.77;7.57;;;0.40;99.90;;;;;;5004980;28;20088;-78
2023/01/22 06:27:20;;;;;;;8.93;7.95;;;0.40;99.90;;;;;;5007267;28;20097;-78
2023/01/22 06:29:46;;;;;;;7.68;6.10;;;0.40;99.90;;;;;;5011047;28;20049;-78
2023/01/22 06:32:12;;;;;;;7.90;7.13;;;0.40;99.90;;;;;;5011450;28;20106;-78
2023/01/22 06:34:38;;;;;;;7.65;7.00;;;0.40;99.90;;;;;;5010354;28;20056;-78
2023/01/22 06:37:04;;;;;;;9.80;8.75;;;0.50;99.90;;;;;;5009707;28;20085;-78
2023/01/22 06:39:29;;;;;;;8.63;7.75;;;0.50;99.90;;;;;;5008687;28;20038;-79
2023/01/22 06:41:55;;;;;;;6.18;5.57;;;0.40;99.90;;;;;;5010685;28;20341;-79
2023/01/22 06:44:20;;;;;;;8.77;7.93;;;0.40;99.90;;;;;;5001639;28;20041;-79
2023/01/22 06:46:46;;;;;;;8.82;6.40;;;0.40;99.90;;;;;;4991885;28;20046;-78
2023/01/22 06:49:12;;;;;;;8.73;7.93;;;0.40;99.90;;;;;;4995135;28;20038;-79
2023/01/22 06:51:39;;;;;;;6.63;5.32;;;0.40;99.90;;;;;;5012883;28;20069;-79
2023/01/22 06:54:05;;;;;;;7.57;6.65;;;0.40;99.90;;;;;;4990301;28;20551;-79
2023/01/22 06:56:30;;;;;;;7.43;6.50;;;0.30;99.90;;;;;;5002603;28;20034;-79
2023/01/22 06:58:57;;;;;;;7.63;6.95;;;0.30;99.90;;;;;;5004403;28;20101;-79
2023/01/22 07:01:22;;;;;;;8.10;6.60;;;0.30;99.90;;;;;;4989136;28;20503;-79
2023/01/22 07:03:48;;;;;;;9.50;8.50;;;0.30;99.90;;;;;;5009462;28;20038;-79
2023/01/22 07:06:17;;;;;;;10.43;9.43;;;0.30;99.90;;;;;;5009477;28;20056;-79
2023/01/22 07:08:43;;;;;;;9.82;8.93;;;0.30;99.90;;;;;;5004477;28;20069;-78
2023/01/22 07:11:09;;;;;;;9.32;8.02;;;0.30;99.90;;;;;;4993099;28;20117;-78
2023/01/22 07:13:34;;;;;;;10.98;8.73;;;0.30;99.90;;;;;;4990660;28;20140;-78
2023/01/22 07:16:01;;;;;;;8.68;7.80;;;0.30;99.90;;;;;;5003932;28;20350;-78
2023/01/22 07:18:27;;;;;;;7.97;6.97;;;0.30;99.90;;;;;;5003898;28;20053;-78
2023/01/22 07:20:53;;;;;;;8.13;7.22;;;0.30;99.90;;;;;;5004303;28;20042;-78
2023/01/22 07:23:19;;;;;;;7.28;5.72;;;0.30;99.90;;;;;;5006003;28;20046;-79
2023/01/22 07:25:45;;;;;;;7.57;6.68;;;0.40;99.90;;;;;;4990875;28;20046;-78
2023/01/22 07:28:13;;;;;;;8.48;7.65;;;0.30;99.90;;;;;;5012279;28;20034;-78
2023/01/22 07:30:41;;;;;;;9.75;8.70;;;0.40;99.90;;;;;;5006127;28;20514;-78
2023/01/22 07:33:09;;;;;;;10.23;7.55;;;0.30;99.90;;;;;;4978029;28;20111;-77
2023/01/22 07:35:34;;;;;;;8.23;7.30;;;0.30;99.90;;;;;;5002636;28;20044;-77
2023/01/22 07:38:00;;;;;;;9.18;8.27;;;0.30;99.90;;;;;;4986528;28;20042;-78
2023/01/22 07:40:26;;;;;;;9.07;8.18;;;0.30;99.90;;;;;;5002999;28;20050;-78
2023/01/22 07:42:53;;;;;;;9.20;8.27;;;0.30;99.90;;;;;;4971194;28;20041;-78
2023/01/22 07:45:21;;;;;;;9.40;8.50;;;0.30;99.90;;;;;;4990203;28;20053;-79
2023/01/22 07:47:54;;;;;;;8.60;7.35;;;0.30;99.90;;;;;;5015548;28;20046;-79
2023/01/22 07:50:21;;;;;;;9.00;6.93;;;0.40;99.90;;;;;;4981783;28;20065;-79
2023/01/22 07:52:47;;;;;;;9.65;8.30;;;0.40;99.90;;;;;;5003093;28;20096;-79
2023/01/22 07:55:12;;;;;;;11.23;8.13;;;0.40;99.90;;;;;;4998939;28;20054;-79
2023/01/22 07:57:38;;;;;;;12.35;8.00;;;0.40;99.90;;;;;;5010932;28;20045;-79
2023/01/22 08:00:04;;;;;;;5.22;4.72;;;0.40;99.90;;;;;;4973477;28;20051;-80
2023/01/22 08:02:30;;;;;;;10.50;8.32;;;0.40;99.90;;;;;;5008521;28;20048;-80
2023/01/22 08:04:55;;;;;;;8.05;7.25;;;0.40;99.90;;;;;;4999000;28;20042;-80
2023/01/22 08:07:22;;;;;;;9.52;8.55;;;0.40;99.90;;;;;;5013561;28;20080;-81
2023/01/22 08:09:48;;;;;;;12.25;8.50;;;0.40;99.90;;;;;;4992802;28;20112;-80
2023/01/22 08:12:14;;;;;;;8.40;7.38;;;0.40;99.90;;;;;;4995354;28;20488;-80
2023/01/22 08:14:39;;;;;;;8.98;8.07;;;0.40;99.90;;;;;;5010955;28;20054;-80
2023/01/22 08:17:05;;;;;;;10.23;8.00;;;0.40;99.90;;;;;;4994647;28;20030;-80
2023/01/22 08:19:30;;;;;;;11.27;8.15;;;0.40;99.90;;;;;;5005811;28;20100;-80
2023/01/22 08:21:56;;;;;;;8.00;6.85;;;0.50;99.90;;;;;;5002528;28;20389;-76
2023/01/22 08:24:22;;;;;;;12.93;9.68;;;0.50;99.90;;;;;;5000386;28;20448;-75
2023/01/22 08:26:48;;;;;;;7.45;6.43;;;0.50;99.90;;;;;;5005347;28;20045;-76
2023/01/22 08:29:14;;;;;;;10.23;9.23;;;0.50;99.90;;;;;;5010838;28;20042;-77
2023/01/22 08:31:39;;;;;;;9.07;8.18;;;0.50;99.90;;;;;;5009397;28;20045;-77
2023/01/22 08:34:05;;;;;;;8.93;8.02;;;0.50;99.90;;;;;;5005816;28;20128;-77
2023/01/22 08:36:31;;;;;;;12.82;8.07;;;0.50;99.90;;;;;;5011779;28;20427;-77
2023/01/22 08:38:56;;;;;;;10.07;9.02;;;0.60;99.90;;;;;;5012880;28;20052;-78
2023/01/22 08:41:22;;;;;;;9.05;8.05;;;0.60;99.90;;;;;;4993459;28;20042;-76
2023/01/22 08:43:50;;;;;;;6.63;5.60;;;0.60;99.90;;;;;;5014724;28;20053;-75
2023/01/22 08:46:15;;;;;;;8.35;7.30;;;0.60;99.90;;;;;;5009329;28;20037;-75
2023/01/22 08:48:42;;;;;;;6.70;6.00;;;0.60;99.90;;;;;;5012280;28;20037;-77
2023/01/22 08:51:09;;;;;;;11.63;7.97;;;0.60;99.90;;;;;;5004232;28;20060;-77
2023/01/22 08:53:35;;;;;;;8.23;7.40;;;0.70;99.90;;;;;;4985941;28;20048;-77
2023/01/22 08:56:00;;;;;;;10.98;8.35;;;0.70;99.90;;;;;;4983156;28;20041;-77
2023/01/22 08:58:26;;;;;;;10.48;6.35;;;0.70;99.90;;;;;;4998705;28;20125;-77
2023/01/22 09:00:53;;;;;;;8.57;6.68;;;0.70;99.90;;;;;;5010484;28;20519;-77
2023/01/22 09:03:22;;;;;;;8.50;7.32;;;0.80;99.90;;;;;;4985108;28;20042;-76
2023/01/22 09:05:49;;;;;;;9.35;8.52;;;0.80;99.90;;;;;;5008266;28;20049;-76
2023/01/22 09:08:15;;;;;;;11.75;8.88;;;0.80;99.90;;;;;;4983523;28;20050;-76
2023/01/22 09:10:42;;;;;;;9.43;8.43;;;0.80;99.90;;;;;;5003650;28;20041;-76
2023/01/22 09:13:08;;;;;;;8.63;7.32;;;0.80;99.90;;;;;;5008594;28;20038;-78
2023/01/22 09:15:33;;;;;;;10.02;8.85;;;0.80;99.90;;;;;;5008625;28;20115;-78
2023/01/22 09:17:59;;;;;;;9.98;8.98;;;0.80;99.90;;;;;;5002685;28;20489;-77
2023/01/22 09:20:25;;;;;;;10.25;9.18;;;0.90;99.90;;;;;;5006492;28;20044;-76
2023/01/22 09:22:51;;;;;;;9.77;8.77;;;;;;;;;;5008923;28;20125;-71
2023/01/22 09:25:17;;;;;;;9.73;8.70;;;0.90;99.90;;;;;;5006251;28;20122;-76
2023/01/22 09:27:42;;;;;;;10.52;9.38;;;0.90;99.90;;;;;;5003672;28;20046;-75
2023/01/22 09:30:09;;;;;;;9.90;8.95;;;0.90;99.90;;;;;;4992719;28;20061;-77
2023/01/22 09:32:35;;;;;;;9.27;6.93;;;0.90;99.90;;;;;;5013306;28;20042;-77
2023/01/22 09:35:01;;;;;;;11.68;9.50;;;1.00;99.90;;;;;;5013426;28;20038;-77
2023/01/22 09:37:26;;;;;;;14.10;6.53;;;1.00;99.90;;;;;;5013307;28;20168;-77
2023/01/22 09:39:52;;;;;;;8.38;7.55;;;1.00;99.90;;;;;;4994221;28;20042;-77
2023/01/22 09:42:27;;;;;;;8.65;7.57;;;1.00;99.90;;;;;;5009552;28;20540;-77
2023/01/22 09:44:58;;;;;;;10.88;9.75;;;1.00;99.90;;;;;;5011313;28;20046;-77
2023/01/22 09:47:46;;;;;;;9.05;7.68;;;1.00;99.90;;;;;;5005739;28;20054;-77
2023/01/22 09:50:24;;;;;;;11.10;9.57;;;1.10;99.90;;;;;;4995454;28;20042;-77
2023/01/22 09:52:52;;;;;;;8.90;8.00;;;1.10;99.90;;;;;;5010652;28;20033;-77
2023/01/22 09:55:21;;;;;;;9.25;8.35;;;1.10;99.90;;;;;;5011255;28;20823;-77
2023/01/22 09:57:50;;;;;;;11.60;9.52;;;1.10;99.90;;;;;;5011186;28;20041;-77
2023/01/22 10:00:19;;;;;;;10.68;8.68;;;1.10;99.90;;;;;;5009123;28;20052;-77
2023/01/22 10:03:03;;;;;;;8.90;8.00;;;1.10;99.90;;;;;;5009727;28;20415;-77
2023/01/22 10:05:34;;;;;;;8.55;7.60;;;1.10;99.90;;;;;;5006362;28;20046;-77
2023/01/22 10:08:14;;;;;;;7.80;6.97;;;1.10;99.90;;;;;;4996237;28;20199;-77
2023/01/22 10:10:40;;;;;;;9.50;8.60;;;1.20;99.90;;;;;;5009995;28;20409;-77
2023/01/22 10:13:19;;;;;;;9.90;8.90;;;1.20;99.90;;;;;;4990832;28;20049;-77
2023/01/22 10:15:46;;;;;;;9.82;8.93;;;1.20;99.90;;;;;;4991528;28;20037;-77
2023/01/22 10:18:38;;;;;;;11.07;9.75;;;1.20;99.90;;;;;;5010435;28;20052;-77
2023/01/22 10:21:05;;;;;;;9.00;6.45;;;;;;;;;;4983385;28;20153;-77
2023/01/22 10:23:33;;;;;;;11.90;7.47;;;1.20;99.90;;;;;;5002311;28;20104;-77
2023/01/22 10:26:24;;;;;;;9.98;5.75;;;1.20;99.90;;;;;;5008543;28;20061;-77
2023/01/22 10:28:56;;;;;;;10.43;6.13;;;1.20;99.90;;;;;;5008365;28;20129;-77
2023/01/22 10:31:25;;;;;;;7.32;6.30;;;1.20;99.90;;;;;;5011739;28;20519;-77
2023/01/22 10:33:56;;;;;;;9.27;7.72;;;1.20;99.90;;;;;;5008709;28;20038;-77
2023/01/22 10:36:22;;;;;;;12.65;8.77;;;1.20;99.90;;;;;;4989775;28;20039;-77
2023/01/22 10:38:47;;;;;;;10.13;9.13;;;1.30;99.90;;;;;;5011067;28;20052;-77
2023/01/22 10:41:16;;;;;;;11.32;10.18;;;1.30;99.90;;;;;;5010494;28;20042;-77
2023/01/22 10:43:42;;;;;;;9.15;8.25;;;1.30;99.90;;;;;;5008397;28;20034;-77
2023/01/22 10:46:22;;;;;;;10.52;9.45;;;1.30;99.90;;;;;;5009121;28;20084;-77
2023/01/22 10:49:05;;;;;;;8.98;8.10;;;1.40;99.90;;;;;;5011221;28;20042;-77
2023/01/22 10:51:38;;;;;;;9.88;8.88;;;1.30;99.90;;;;;;4995808;28;20053;-77
2023/01/22 10:54:21;;;;;;;9.45;7.47;;;1.40;99.90;;;;;;5007721;28;20425;-77
2023/01/22 10:56:48;;;;;;;10.52;9.60;;;1.30;99.90;;;;;;5007935;28;20045;-77
2023/01/22 10:59:21;;;;;;;10.38;8.95;;;1.30;99.90;;;;;;5014782;28;20065;-77
2023/01/22 11:01:48;;;;;;;7.80;6.95;;;1.40;99.90;;;;;;5013765;28;20050;-77
2023/01/22 11:04:30;;;;;;;12.52;8.93;;;1.30;99.90;;;;;;5015194;28;20418;-77
2023/01/22 11:07:27;;;;;;;6.60;5.88;;;1.40;99.90;;;;;;5013676;28;20046;-77
2023/01/22 11:10:17;;;;;;;9.52;6.63;;;1.30;99.90;;;;;;5012429;28;20056;-77
2023/01/22 11:12:48;;;;;;;9.60;8.60;;;1.30;99.90;;;;;;4990754;28;20049;-76
2023/01/22 11:15:43;;;;;;;10.88;8.32;;;1.30;99.90;;;;;;4994090;28;20140;-76
2023/01/22 11:18:34;;;;;;;12.57;9.48;;;1.30;99.90;;;;;;5013269;28;20139;-76
2023/01/22 11:21:04;;;;;;;8.70;7.80;;;1.40;99.90;;;;;;4914711;29;20063;-76
2023/01/22 11:23:46;;;;;;;10.98;9.32;;;1.40;99.90;;;;;;4899041;29;20064;-76
2023/01/22 11:26:27;;;;;;;12.57;8.07;;;1.40;99.90;;;;;;4905551;29;20400;-76
2023/01/22 11:28:56;;;;;;;11.35;8.82;;;1.40;99.90;;;;;;4915108;29;20056;-77
2023/01/22 11:31:37;;;;;;;10.43;9.32;;;1.50;99.90;;;;;;4878791;29;20056;-77
2023/01/22 11:34:25;;;;;;;10.57;9.10;;;1.60;99.90;;;;;;4907796;29;20052;-77
2023/01/22 11:37:23;;;;;;;8.25;7.40;;;1.60;99.90;;;;;;4899329;29;20403;-77
2023/01/22 11:39:52;;;;;;;8.55;6.65;;;1.70;99.90;;;;;;4890405;29;20528;-77
2023/01/22 11:42:39;;;;;;;9.82;7.68;;;1.60;99.90;;;;;;4915032;29;20112;-77
2023/01/22 11:45:46;;;;;;;11.45;7.57;;;1.60;99.90;;;;;;4915002;29;20095;-77
2023/01/22 11:48:22;;;;;;;10.18;8.63;;;1.60;99.90;;;;;;4896629;29;20215;-77
2023/01/22 11:50:57;;;;;;;14.63;10.30;;;1.60;99.90;;;;;;4915707;29;20132;-77
2023/01/22 11:53:46;;;;;;;12.02;7.57;;;1.70;99.90;;;;;;4915515;29;20119;-77
2023/01/22 11:56:40;;;;;;;10.85;7.15;;;1.70;99.90;;;;;;4915435;29;20048;-77
2023/01/22 11:59:31;;;;;;;11.90;8.20;;;1.70;99.90;;;;;;5006363;28;20057;-76
2023/01/22 12:02:17;;;;;;;8.48;7.18;;;1.70;99.90;;;;;;5013806;28;20168;-76
2023/01/22 12:05:20;;;;;;;5.70;5.13;;;1.70;99.90;;;;;;5012757;28;20117;-76
2023/01/22 12:08:11;;;;;;;14.32;9.27;;;1.70;99.90;;;;;;4995588;28;20077;-77
2023/01/22 12:10:45;;;;;;;5.93;5.38;;;1.70;99.90;;;;;;5007082;28;20125;-77
2023/01/22 12:13:28;;;;;;;12.35;8.50;;;1.60;99.90;;;;;;4997290;28;20396;-77
2023/01/22 12:16:22;;;;;;;11.88;7.07;;;1.60;99.90;;;;;;5012782;28;20076;-77
2023/01/22 12:19:01;;;;;;;9.60;7.22;;;1.60;99.90;;;;;;5012578;28;20053;-77
2023/01/22 12:21:32;;;;;;;8.65;7.65;;;1.70;99.90;;;;;;4978074;28;20049;-77
2023/01/22 12:24:19;;;;;;;8.65;6.97;;;1.80;99.90;;;;;;5011226;28;20527;-77
2023/01/22 12:26:51;;;;;;;10.70;9.00;;;1.80;99.90;;;;;;5008475;28;20038;-77
2023/01/22 12:29:52;;;;;;;10.50;8.43;;;1.80;99.90;;;;;;5011218;28;20049;-77
2023/01/22 12:32:21;;;;;;;9.68;7.65;;;1.80;99.90;;;;;;5011373;28;20053;-77
2023/01/22 12:35:01;;;;;;;12.52;9.32;;;1.70;99.90;;;;;;4981428;28;20579;-77
2023/01/22 12:37:42;;;;;;;8.80;6.63;;;1.80;99.90;;;;;;5013622;28;20073;-77
2023/01/22 12:40:24;;;;;;;11.13;9.05;;;1.80;99.90;;;;;;4985252;28;20050;-77
2023/01/22 12:42:59;;;;;;;9.30;6.95;;;1.80;99.90;;;;;;5013594;28;20101;-77
2023/01/22 12:45:33;;;;;;;11.73;9.82;;;1.70;99.90;;;;;;5011565;28;20030;-77
2023/01/22 12:48:26;;;;;;;10.05;8.75;;;1.80;99.90;;;;;;4995423;28;20085;-77
2023/01/22 12:50:56;;;;;;;11.95;8.70;;;1.80;99.90;;;;;;5011968;28;20136;-77
2023/01/22 12:53:30;;;;;;;10.52;8.55;;;1.80;99.90;;;;;;5014129;28;20092;-77
2023/01/22 12:56:08;;;;;;;9.90;7.20;;;1.80;99.90;;;;;;4993331;28;20034;-77
2023/01/22 12:58:39;;;;;;;10.80;8.50;;;1.80;99.90;;;;;;4994531;28;20442;-77
2023/01/22 13:01:08;;;;;;;10.00;5.70;;;1.80;99.90;;;;;;5002349;28;20092;-77
2023/01/22 13:03:34;;;;;;;11.15;8.65;;;1.80;99.90;;;;;;5013554;28;20042;-77
2023/01/22 13:06:03;;;;;;;8.88;7.88;;;1.80;99.90;;;;;;5013430;28;20038;-77
2023/01/22 13:08:39;;;;;;;10.10;8.25;;;1.80;99.90;;;;;;5010566;28;20491;-77